Time;durP1;ratioP1;P1;durP2;ratioP2;P2;SDS_P1;SDS_P2;PMS_P1;PMS_P2;Temp;Humidity;BMP_temperature;BMP_pressure;BME280_temperature;BME280_humidity;BME280_pressure;Samples;Min_cycle;Max_cycle;Signal;HPM_P1;HPM_P2
2023/09/26 00:01:12;;;;;;;2.92;2.10;;;11.10;99.90;;;;;;5034994;28;20220;-88
2023/09/26 00:03:39;;;;;;;5.10;2.45;;;11.10;99.90;;;;;;5035972;28;20194;-87
2023/09/26 00:06:18;;;;;;;7.65;2.33;;;11.00;99.90;;;;;;5035392;28;20182;-88
2023/09/26 00:08:44;;;;;;;4.60;2.10;;;11.00;99.90;;;;;;5034942;28;20166;-88
2023/09/26 00:11:16;;;;;;;3.33;2.25;;;11.00;99.90;;;;;;5035096;28;20204;-87
2023/09/26 00:13:43;;;;;;;5.55;2.78;;;11.00;99.90;;;;;;5035037;28;20601;-88
2023/09/26 00:16:10;;;;;;;4.57;2.10;;;10.90;99.90;;;;;;5034852;28;20175;-87
2023/09/26 00:18:35;;;;;;;3.25;2.30;;;10.90;99.90;;;;;;5034722;28;20186;-88
2023/09/26 00:21:02;;;;;;;2.78;2.03;;;10.70;99.90;;;;;;5035857;28;20717;-89
2023/09/26 00:23:28;;;;;;;2.60;2.13;;;10.70;99.90;;;;;;5035626;28;20632;-88
2023/09/26 00:25:54;;;;;;;2.22;2.00;;;10.70;99.90;;;;;;5035908;28;20198;-88
2023/09/26 00:28:19;;;;;;;3.28;1.88;;;10.70;99.90;;;;;;5466017;22;20250;-88
2023/09/26 00:30:46;;;;;;;2.50;2.00;;;10.80;99.90;;;;;;5035765;28;20171;-88
2023/09/26 00:33:12;;;;;;;2.95;1.80;;;10.70;99.90;;;;;;5035651;28;20516;-88
2023/09/26 00:35:37;;;;;;;2.20;2.00;;;10.70;99.90;;;;;;5034676;28;20183;-88
2023/09/26 00:38:03;;;;;;;2.75;1.92;;;10.70;99.90;;;;;;5035521;28;20254;-88
2023/09/26 00:40:29;;;;;;;2.15;1.95;;;10.80;99.90;;;;;;5034638;28;20170;-88
2023/09/26 00:42:59;;;;;;;4.55;2.00;;;10.60;99.90;;;;;;5034354;28;20181;-88
2023/09/26 00:45:27;;;;;;;4.20;2.20;;;10.50;99.90;;;;;;5034077;28;20224;-88
2023/09/26 00:47:53;;;;;;;2.80;2.17;;;10.50;99.90;;;;;;5034289;28;20609;-88
2023/09/26 00:50:22;;;;;;;5.28;2.10;;;10.50;99.90;;;;;;5034510;28;20221;-88
2023/09/26 00:52:51;;;;;;;3.28;2.50;;;10.40;99.90;;;;;;5034136;28;20228;-88
2023/09/26 00:55:23;;;;;;;2.33;1.83;;;10.40;99.90;;;;;;5034183;28;20225;-88
2023/09/26 00:57:54;;;;;;;2.38;1.80;;;10.30;99.90;;;;;;5033323;28;20597;-88
2023/09/26 01:00:21;;;;;;;4.63;1.90;;;10.30;99.90;;;;;;5034057;28;20316;-89
2023/09/26 01:02:50;;;;;;;1.95;1.70;;;10.30;99.90;;;;;;5034118;28;20174;-88
2023/09/26 01:05:15;;;;;;;2.72;2.03;;;10.40;99.90;;;;;;5033743;28;20220;-88
2023/09/26 01:07:41;;;;;;;2.28;2.08;;;10.30;99.90;;;;;;5033698;28;20521;-87
2023/09/26 01:10:08;;;;;;;2.50;1.85;;;10.20;99.90;;;;;;5033570;28;20232;-88
2023/09/26 01:12:36;;;;;;;3.20;2.08;;;10.10;99.90;;;;;;5033958;28;20236;-89
2023/09/26 01:15:01;;;;;;;2.22;1.92;;;10.10;99.90;;;;;;5033893;28;20189;-88
2023/09/26 01:17:31;;;;;;;2.90;2.22;;;10.00;99.90;;;;;;5033737;28;20575;-88
2023/09/26 01:19:59;;;;;;;2.42;1.83;;;10.00;99.90;;;;;;5033919;28;20580;-88
2023/09/26 01:22:27;;;;;;;3.53;2.40;;;10.10;99.90;;;;;;5033910;28;20194;-88
2023/09/26 01:24:54;;;;;;;3.58;1.95;;;10.10;99.90;;;;;;5033702;28;20214;-88
2023/09/26 01:27:20;;;;;;;2.03;1.83;;;10.20;99.90;;;;;;5033458;28;20253;-88
2023/09/26 01:29:49;;;;;;;4.43;1.90;;;10.20;99.90;;;;;;5033153;28;20744;-88
2023/09/26 01:32:14;;;;;;;2.95;2.47;;;10.30;99.90;;;;;;5035170;28;20213;-88
2023/09/26 01:34:40;;;;;;;5.35;2.55;;;10.30;99.90;;;;;;5034770;28;20182;-88
2023/09/26 01:37:07;;;;;;;4.63;2.65;;;10.30;99.90;;;;;;5033405;28;20229;-88
2023/09/26 01:39:33;;;;;;;2.70;2.20;;;10.30;99.90;;;;;;5033590;28;20493;-88
2023/09/26 01:41:59;;;;;;;3.05;2.20;;;10.20;99.90;;;;;;5033358;28;20182;-87
2023/09/26 01:44:25;;;;;;;3.92;2.42;;;10.10;99.90;;;;;;5033139;28;20214;-88
2023/09/26 01:46:50;;;;;;;2.28;2.08;;;10.10;99.90;;;;;;5033444;28;20175;-88
2023/09/26 01:49:16;;;;;;;4.30;2.13;;;10.10;99.90;;;;;;5034676;28;20179;-88
2023/09/26 01:51:42;;;;;;;2.85;2.33;;;10.20;99.90;;;;;;5034445;28;20175;-88
2023/09/26 01:54:07;;;;;;;2.78;2.10;;;10.30;99.90;;;;;;5034598;28;20617;-88
2023/09/26 01:56:33;;;;;;;2.78;2.20;;;10.30;99.90;;;;;;5033627;28;20170;-88
2023/09/26 01:59:00;;;;;;;2.55;2.30;;;10.20;99.90;;;;;;5032937;28;20182;-88
2023/09/26 02:01:27;;;;;;;4.95;2.47;;;10.10;99.90;;;;;;5033525;28;20198;-86
2023/09/26 02:03:53;;;;;;;2.95;2.33;;;10.00;99.90;;;;;;5033094;28;20202;-89
2023/09/26 02:06:18;;;;;;;4.43;2.78;;;9.80;99.90;;;;;;5034490;28;20181;-88
2023/09/26 02:08:44;;;;;;;3.50;2.50;;;9.70;99.90;;;;;;5034348;28;20186;-87
2023/09/26 02:11:10;;;;;;;3.83;2.60;;;9.80;99.90;;;;;;5038373;28;20598;-88
2023/09/26 02:13:35;;;;;;;2.40;2.08;;;9.80;99.90;;;;;;5037007;28;20181;-88
2023/09/26 02:16:01;;;;;;;3.00;2.40;;;9.90;99.90;;;;;;5038435;28;20167;-88
2023/09/26 02:18:27;;;;;;;2.50;2.08;;;10.00;99.90;;;;;;5038271;28;20617;-88
2023/09/26 02:20:54;;;;;;;3.65;2.15;;;10.00;99.90;;;;;;5036799;28;20265;-87
2023/09/26 02:23:19;;;;;;;3.25;2.00;;;9.80;99.90;;;;;;5036686;28;20184;-88
2023/09/26 02:25:52;;;;;;;5.05;2.33;;;9.70;99.90;;;;;;5038096;28;20187;-88
2023/09/26 02:28:20;;;;;;;3.53;2.22;;;9.80;99.90;;;;;;5036680;28;20226;-87
2023/09/26 02:30:46;;;;;;;5.93;2.47;;;9.80;99.90;;;;;;5036525;28;20186;-87
2023/09/26 02:33:12;;;;;;;4.00;2.08;;;9.80;99.90;;;;;;5036920;28;20624;-88
2023/09/26 02:35:37;;;;;;;2.15;1.85;;;9.90;99.90;;;;;;5036649;28;20182;-87
2023/09/26 02:38:03;;;;;;;4.53;2.00;;;9.90;99.90;;;;;;5036605;28;20207;-88
2023/09/26 02:40:30;;;;;;;2.53;2.20;;;9.90;99.90;;;;;;5036840;28;20514;-88
2023/09/26 02:42:56;;;;;;;5.05;2.38;;;9.80;99.90;;;;;;5037882;28;20194;-88
2023/09/26 02:45:22;;;;;;;2.05;1.85;;;9.70;99.90;;;;;;5037406;28;20663;-88
2023/09/26 02:47:48;;;;;;;3.70;2.20;;;9.60;99.90;;;;;;5036432;28;20175;-87
2023/09/26 02:50:15;;;;;;;5.15;2.20;;;9.50;99.90;;;;;;5036370;28;20545;-88
2023/09/26 02:52:43;;;;;;;4.50;2.20;;;9.50;99.90;;;;;;5036587;28;20185;-88
2023/09/26 02:55:12;;;;;;;3.90;2.00;;;9.40;99.90;;;;;;5053016;28;20178;-87
2023/09/26 02:57:37;;;;;;;2.38;2.05;;;9.30;99.90;;;;;;5037346;28;20185;-88
2023/09/26 03:00:17;;;;;;;2.67;2.00;;;9.40;99.90;;;;;;5035749;28;20273;-87
2023/09/26 03:02:45;;;;;;;2.78;2.20;;;9.40;99.90;;;;;;5037492;28;20697;-88
2023/09/26 03:05:11;;;;;;;2.92;2.38;;;9.60;99.90;;;;;;5036083;28;20530;-87
2023/09/26 03:07:39;;;;;;;4.07;2.47;;;9.40;99.90;;;;;;5035976;28;20274;-88
2023/09/26 03:10:07;;;;;;;5.32;2.40;;;9.30;99.90;;;;;;5036310;28;20191;-87
2023/09/26 03:12:33;;;;;;;3.50;3.00;;;9.30;99.90;;;;;;5036015;28;20174;-88
2023/09/26 03:14:59;;;;;;;3.10;2.80;;;9.40;99.90;;;;;;5035680;28;20623;-88
2023/09/26 03:17:24;;;;;;;2.85;2.65;;;9.30;99.90;;;;;;5035836;28;20589;-88
2023/09/26 03:19:50;;;;;;;3.40;3.00;;;9.40;99.90;;;;;;5036529;28;20174;-88
2023/09/26 03:22:16;;;;;;;4.05;2.88;;;9.40;99.90;;;;;;5035663;28;20179;-88
2023/09/26 03:24:41;;;;;;;3.38;2.92;;;9.30;99.90;;;;;;5035722;28;20210;-87
2023/09/26 03:27:07;;;;;;;4.50;2.95;;;9.40;99.90;;;;;;5035664;28;20682;-87
2023/09/26 03:29:33;;;;;;;4.55;2.85;;;9.50;99.90;;;;;;5035139;28;20226;-88
2023/09/26 03:31:58;;;;;;;4.82;2.75;;;9.40;99.90;;;;;;5036655;28;20207;-87
2023/09/26 03:34:24;;;;;;;6.43;2.78;;;9.30;99.90;;;;;;5035593;28;20367;-87
2023/09/26 03:36:50;;;;;;;3.40;2.60;;;9.20;99.90;;;;;;5035533;28;20289;-88
2023/09/26 03:39:15;;;;;;;5.10;2.88;;;9.20;99.90;;;;;;5035408;28;20178;-88
2023/09/26 03:41:43;;;;;;;3.08;2.80;;;9.20;99.90;;;;;;5036229;28;20171;-87
2023/09/26 03:44:09;;;;;;;4.00;3.22;;;9.20;99.90;;;;;;5035033;28;20206;-87
2023/09/26 03:46:34;;;;;;;2.88;2.60;;;9.30;99.90;;;;;;5035345;28;20195;-87
2023/09/26 03:49:00;;;;;;;3.20;2.88;;;9.30;99.90;;;;;;5035394;28;20184;-87
2023/09/26 03:51:26;;;;;;;4.30;2.97;;;9.20;99.90;;;;;;5036483;28;20514;-87
2023/09/26 03:53:52;;;;;;;3.47;2.80;;;9.10;99.90;;;;;;5035176;28;20173;-87
2023/09/26 03:56:17;;;;;;;3.95;2.60;;;9.00;99.90;;;;;;5035238;28;20182;-87
2023/09/26 03:58:43;;;;;;;3.85;2.88;;;9.20;99.90;;;;;;5034887;28;20187;-87
2023/09/26 04:01:15;;;;;;;2.92;2.63;;;9.20;99.90;;;;;;5035167;28;20518;-88
2023/09/26 04:03:45;;;;;;;4.82;2.80;;;9.10;99.90;;;;;;5035077;28;20206;-87
2023/09/26 04:06:11;;;;;;;3.03;2.60;;;9.10;99.90;;;;;;5035081;28;20179;-87
2023/09/26 04:08:37;;;;;;;4.23;2.70;;;9.00;99.90;;;;;;5034867;28;20174;-87
2023/09/26 04:11:04;;;;;;;2.90;2.70;;;9.10;99.90;;;;;;5035147;28;20178;-88
2023/09/26 04:13:30;;;;;;;4.45;2.50;;;9.10;99.90;;;;;;5034559;28;20175;-87
2023/09/26 04:15:56;;;;;;;6.47;2.78;;;9.10;99.90;;;;;;5035600;28;20186;-88
2023/09/26 04:18:22;;;;;;;3.50;2.53;;;9.20;99.90;;;;;;5034489;28;20181;-88
2023/09/26 04:20:49;;;;;;;4.00;2.30;;;9.20;99.90;;;;;;5034342;28;20182;-88
2023/09/26 04:23:15;;;;;;;6.82;3.05;;;9.00;99.90;;;;;;5034237;28;20187;-88
2023/09/26 04:25:41;;;;;;;8.15;2.90;;;8.80;99.90;;;;;;5034266;28;20182;-87
2023/09/26 04:28:07;;;;;;;3.35;2.67;;;8.70;99.90;;;;;;5033669;28;20284;-87
2023/09/26 04:30:38;;;;;;;3.42;2.80;;;8.70;99.90;;;;;;5034050;28;20628;-87
2023/09/26 04:33:08;;;;;;;3.35;2.60;;;8.80;99.90;;;;;;5034193;28;20178;-87
2023/09/26 04:35:34;;;;;;;2.72;2.45;;;8.70;99.90;;;;;;5034350;28;20204;-87
2023/09/26 04:38:00;;;;;;;4.15;2.30;;;8.70;99.90;;;;;;5034121;28;20183;-87
2023/09/26 04:40:29;;;;;;;3.00;2.50;;;8.70;99.90;;;;;;5034291;28;20182;-87
2023/09/26 04:43:00;;;;;;;5.28;2.65;;;8.70;99.90;;;;;;5034299;28;20206;-88
2023/09/26 04:45:29;;;;;;;3.13;2.70;;;8.80;99.90;;;;;;5034131;28;20586;-87
2023/09/26 04:48:01;;;;;;;3.25;2.78;;;8.80;99.90;;;;;;5034321;28;20182;-88
2023/09/26 04:50:30;;;;;;;3.90;2.72;;;8.90;99.90;;;;;;5034277;28;20177;-88
2023/09/26 04:52:57;;;;;;;2.72;2.45;;;8.90;99.90;;;;;;5035446;28;20171;-88
2023/09/26 04:55:23;;;;;;;3.42;2.58;;;8.80;99.90;;;;;;5024341;28;20222;-88
2023/09/26 04:57:49;;;;;;;2.63;2.42;;;8.80;99.90;;;;;;5015484;28;20499;-88
2023/09/26 05:00:17;;;;;;;4.13;2.90;;;8.80;99.90;;;;;;5031550;28;20210;-87
2023/09/26 05:02:44;;;;;;;5.85;2.92;;;8.80;99.90;;;;;;5034177;28;20192;-88
2023/09/26 05:05:10;;;;;;;3.05;2.50;;;8.60;99.90;;;;;;5033860;28;20648;-88
2023/09/26 05:07:36;;;;;;;2.60;2.40;;;8.70;99.90;;;;;;5033968;28;20190;-88
2023/09/26 05:10:03;;;;;;;5.63;2.67;;;8.50;99.90;;;;;;5035049;28;20179;-87
2023/09/26 05:12:30;;;;;;;5.47;2.75;;;8.40;99.90;;;;;;5033913;28;20179;-88
2023/09/26 05:14:56;;;;;;;4.07;2.53;;;8.40;99.90;;;;;;5034739;28;20228;-87
2023/09/26 05:17:24;;;;;;;4.95;2.88;;;8.40;99.90;;;;;;5033685;28;20265;-87
2023/09/26 05:19:51;;;;;;;3.15;2.85;;;8.40;99.90;;;;;;5035109;28;20281;-88
2023/09/26 05:22:18;;;;;;;5.30;2.73;;;8.40;99.90;;;;;;5033723;28;20177;-87
2023/09/26 05:24:43;;;;;;;3.20;2.70;;;8.30;99.90;;;;;;5033479;28;20244;-87
2023/09/26 05:27:09;;;;;;;3.28;2.63;;;8.30;99.90;;;;;;5033461;28;20608;-87
2023/09/26 05:29:35;;;;;;;4.60;2.80;;;8.20;99.90;;;;;;5033266;28;20329;-87
2023/09/26 05:32:02;;;;;;;3.15;2.80;;;8.20;99.90;;;;;;5033519;28;20179;-88
2023/09/26 05:34:28;;;;;;;3.38;2.95;;;8.20;99.90;;;;;;5033099;28;20186;-88
2023/09/26 05:36:53;;;;;;;7.13;3.13;;;8.40;99.90;;;;;;5033246;28;20186;-87
2023/09/26 05:39:19;;;;;;;4.72;3.10;;;8.40;99.90;;;;;;5033137;28;20179;-88
2023/09/26 05:41:48;;;;;;;3.17;2.88;;;8.60;99.90;;;;;;5033231;28;20266;-87
2023/09/26 05:44:17;;;;;;;4.28;3.05;;;8.60;99.90;;;;;;5032670;28;20305;-88
2023/09/26 05:46:43;;;;;;;4.38;2.50;;;8.60;99.90;;;;;;5033478;28;20248;-88
2023/09/26 05:49:09;;;;;;;2.90;2.60;;;8.60;99.90;;;;;;5033340;28;20270;-87
2023/09/26 05:51:37;;;;;;;3.22;2.85;;;8.70;99.90;;;;;;5033242;28;20676;-87
2023/09/26 05:54:03;;;;;;;3.88;3.25;;;8.70;99.90;;;;;;5033549;28;20171;-87
2023/09/26 05:56:28;;;;;;;3.05;2.75;;;8.60;99.90;;;;;;5033182;28;20651;-87
2023/09/26 05:58:54;;;;;;;2.97;2.53;;;8.70;99.90;;;;;;5033148;28;20179;-87
2023/09/26 06:01:21;;;;;;;4.75;2.88;;;8.90;99.90;;;;;;5032965;28;20175;-88
2023/09/26 06:03:46;;;;;;;3.65;3.13;;;8.90;99.90;;;;;;5033118;28;20210;-87
2023/09/26 06:06:12;;;;;;;4.03;2.95;;;8.90;99.90;;;;;;5034550;28;20217;-89
2023/09/26 06:08:38;;;;;;;4.13;2.83;;;8.90;99.90;;;;;;5033269;28;20183;-88
2023/09/26 06:11:04;;;;;;;4.07;2.97;;;9.10;99.90;;;;;;5033332;28;20177;-88
2023/09/26 06:13:31;;;;;;;5.20;2.85;;;9.20;99.90;;;;;;5034397;28;20166;-88
2023/09/26 06:15:56;;;;;;;4.95;3.00;;;9.30;99.90;;;;;;5032751;28;20178;-88
2023/09/26 06:18:22;;;;;;;4.53;3.13;;;9.40;99.90;;;;;;5034275;28;20219;-87
2023/09/26 06:20:48;;;;;;;4.50;2.80;;;9.50;99.90;;;;;;5033022;28;20175;-88
2023/09/26 06:23:15;;;;;;;3.60;2.65;;;9.50;99.90;;;;;;5034343;28;20663;-88
2023/09/26 06:25:40;;;;;;;4.75;3.08;;;9.50;99.90;;;;;;5033064;28;20325;-88
2023/09/26 06:28:07;;;;;;;5.45;3.30;;;9.50;99.90;;;;;;5032840;28;20268;-88
2023/09/26 06:30:33;;;;;;;4.22;3.35;;;9.50;99.90;;;;;;5032754;28;20171;-88
2023/09/26 06:33:02;;;;;;;4.63;3.35;;;9.60;99.90;;;;;;5032911;28;20262;-88
2023/09/26 06:35:31;;;;;;;3.70;3.15;;;9.70;99.90;;;;;;5033010;28;20167;-88
2023/09/26 06:37:57;;;;;;;3.85;3.20;;;9.90;99.90;;;;;;5032897;28;20183;-87
2023/09/26 06:40:22;;;;;;;3.97;3.40;;;9.90;99.90;;;;;;5033009;28;20632;-88
2023/09/26 06:42:49;;;;;;;3.30;3.00;;;10.00;99.90;;;;;;5034004;28;20174;-88
2023/09/26 06:45:15;;;;;;;6.75;3.65;;;10.00;99.90;;;;;;5032433;28;20214;-87
2023/09/26 06:47:41;;;;;;;4.35;3.38;;;10.00;99.90;;;;;;5032557;28;20570;-86
2023/09/26 06:50:10;;;;;;;4.47;3.58;;;10.10;99.90;;;;;;5034097;28;20175;-88
2023/09/26 06:52:38;;;;;;;4.93;3.47;;;10.20;99.90;;;;;;5033921;28;20171;-88
2023/09/26 06:55:10;;;;;;;4.95;3.72;;;10.30;99.90;;;;;;5032852;28;20230;-88
2023/09/26 06:57:40;;;;;;;5.90;4.03;;;10.30;99.90;;;;;;5036257;28;20268;-87
2023/09/26 07:00:13;;;;;;;4.43;3.60;;;10.40;99.90;;;;;;5036027;28;20309;-87
2023/09/26 07:02:42;;;;;;;6.05;3.90;;;10.50;99.90;;;;;;5036075;28;20273;-87
2023/09/26 07:05:08;;;;;;;4.22;3.83;;;10.60;99.90;;;;;;5035873;28;20648;-88
2023/09/26 07:07:34;;;;;;;6.50;3.65;;;10.70;99.90;;;;;;5035934;28;20182;-88
2023/09/26 07:10:01;;;;;;;5.93;4.03;;;10.90;99.90;;;;;;5036370;28;20187;-88
2023/09/26 07:12:28;;;;;;;6.90;3.80;;;10.90;99.90;;;;;;5037199;28;20574;-87
2023/09/26 07:14:56;;;;;;;7.32;4.35;;;11.00;99.90;;;;;;5036676;28;20166;-87
2023/09/26 07:17:22;;;;;;;6.60;4.30;;;11.10;99.90;;;;;;5035800;28;20179;-87
2023/09/26 07:19:51;;;;;;;4.88;4.30;;;11.20;99.90;;;;;;5035753;28;20179;-88
2023/09/26 07:22:17;;;;;;;4.10;3.63;;;11.30;99.90;;;;;;5033187;28;20236;-86
2023/09/26 07:24:48;;;;;;;4.68;4.20;;;11.40;99.90;;;;;;5035396;28;20291;-85
2023/09/26 07:27:15;;;;;;;6.28;5.30;;;11.50;99.90;;;;;;5035581;28;20486;-87
2023/09/26 07:29:45;;;;;;;8.25;5.85;;;11.70;99.90;;;;;;5035055;28;20226;-86
2023/09/26 07:32:11;;;;;;;11.00;7.30;;;11.80;99.90;;;;;;5035235;28;20210;-87
2023/09/26 07:34:37;;;;;;;10.45;7.55;;;11.90;99.90;;;;;;5035350;28;20272;-87
2023/09/26 07:37:02;;;;;;;12.02;7.75;;;12.00;99.90;;;;;;5035317;28;20547;-87
2023/09/26 07:39:28;;;;;;;10.30;6.95;;;12.20;99.90;;;;;;5035130;28;20186;-85
2023/09/26 07:41:54;;;;;;;10.57;7.30;;;12.30;99.90;;;;;;5034977;28;20208;-86
2023/09/26 07:44:19;;;;;;;13.75;8.90;;;12.40;99.90;;;;;;5035246;28;20210;-87
2023/09/26 07:46:45;;;;;;;7.25;5.53;;;12.50;99.90;;;;;;5034808;28;20189;-87
2023/09/26 07:49:11;;;;;;;9.00;6.28;;;12.60;99.90;;;;;;5036209;28;20587;-87
2023/09/26 07:51:36;;;;;;;8.20;6.13;;;12.80;99.90;;;;;;5034835;28;20170;-86
2023/09/26 07:54:04;;;;;;;11.23;7.93;;;12.80;99.90;;;;;;5034687;28;20265;-87
2023/09/26 07:56:30;;;;;;;8.52;6.38;;;13.00;99.90;;;;;;5034775;28;20280;-86
2023/09/26 07:58:55;;;;;;;8.25;6.90;;;13.10;99.90;;;;;;5034537;28;20617;-87
2023/09/26 08:01:21;;;;;;;10.63;7.47;;;13.20;99.90;;;;;;5034371;28;20189;-85
2023/09/26 08:03:47;;;;;;;8.38;7.40;;;13.40;99.90;;;;;;5034565;28;20256;-87
2023/09/26 08:06:13;;;;;;;8.27;6.95;;;13.50;99.90;;;;;;5035509;28;20159;-86
2023/09/26 08:08:39;;;;;;;16.35;6.75;;;13.60;99.90;;;;;;5034389;28;20179;-85
2023/09/26 08:11:08;;;;;;;11.93;7.22;;;13.70;99.90;;;;;;5034416;28;20182;-87
2023/09/26 08:13:34;;;;;;;9.27;7.18;;;13.80;99.90;;;;;;5034163;28;20193;-87
2023/09/26 08:16:01;;;;;;;10.93;7.80;;;13.90;99.90;;;;;;5035444;28;20163;-87
2023/09/26 08:18:26;;;;;;;10.52;7.30;;;14.00;99.90;;;;;;5034215;28;20273;-86
2023/09/26 08:20:55;;;;;;;7.15;6.38;;;14.20;99.90;;;;;;5034188;28;20692;-87
2023/09/26 08:23:25;;;;;;;12.50;6.20;;;14.40;99.90;;;;;;5034095;28;20178;-86
2023/09/26 08:26:00;;;;;;;8.38;6.60;;;14.50;99.90;;;;;;5034150;28;20988;-87
2023/09/26 08:28:26;;;;;;;10.38;5.70;;;14.60;99.90;;;;;;5033837;28;20250;-86
2023/09/26 08:30:56;;;;;;;9.35;5.82;;;14.80;99.90;;;;;;5035314;28;20197;-87
2023/09/26 08:33:24;;;;;;;10.98;7.95;;;14.90;99.90;;;;;;5034097;28;20171;-86
2023/09/26 08:35:51;;;;;;;11.73;8.00;;;15.00;99.90;;;;;;5035360;28;20648;-88
2023/09/26 08:38:17;;;;;;;14.07;7.90;;;15.10;99.90;;;;;;5033858;28;20181;-87
2023/09/26 08:40:44;;;;;;;9.57;7.28;;;15.30;99.90;;;;;;5034033;28;20178;-88
2023/09/26 08:43:14;;;;;;;8.48;6.72;;;15.40;99.90;;;;;;5033810;28;20538;-87
2023/09/26 08:45:40;;;;;;;8.25;5.82;;;15.60;99.90;;;;;;5033480;28;20641;-87
2023/09/26 08:48:07;;;;;;;7.72;5.95;;;15.70;99.90;;;;;;5033605;28;20205;-87
2023/09/26 08:50:32;;;;;;;7.38;6.10;;;15.90;99.90;;;;;;5033519;28;20189;-88
2023/09/26 08:52:59;;;;;;;10.55;5.68;;;16.20;99.90;;;;;;5033510;28;20175;-86
2023/09/26 08:55:27;;;;;;;12.35;5.10;;;16.40;99.90;;;;;;5034992;28;20257;-87
2023/09/26 08:57:55;;;;;;;5.75;4.68;;;16.50;99.90;;;;;;5033600;28;20174;-86
2023/09/26 09:00:22;;;;;;;7.32;4.38;;;16.50;99.90;;;;;;5033135;28;20272;-86
2023/09/26 09:02:49;;;;;;;6.03;4.32;;;16.60;99.90;;;;;;5033374;28;20197;-86
2023/09/26 09:05:21;;;;;;;6.15;4.35;;;16.80;99.90;;;;;;5034632;28;20191;-87
2023/09/26 09:07:47;;;;;;;7.43;4.50;;;16.80;99.90;;;;;;5033285;28;20558;-87
2023/09/26 09:10:16;;;;;;;6.00;3.75;;;16.90;99.90;;;;;;5033351;28;20185;-86
2023/09/26 09:12:47;;;;;;;10.43;4.60;;;17.10;99.90;;;;;;5033222;28;20175;-85
2023/09/26 09:15:16;;;;;;;8.70;4.05;;;17.20;99.90;;;;;;5033074;28;20681;-86
2023/09/26 09:18:00;;;;;;;8.95;3.60;;;17.40;99.90;;;;;;5032535;28;20210;-87
2023/09/26 09:20:35;;;;;;;9.48;4.28;;;17.60;99.90;;;;;;5033163;28;20232;-85
2023/09/26 09:23:06;;;;;;;4.32;3.65;;;17.80;99.90;;;;;;5034298;28;20182;-86
2023/09/26 09:25:34;;;;;;;5.80;4.22;;;18.00;99.90;;;;;;5034298;28;20229;-86
2023/09/26 09:28:01;;;;;;;6.18;4.43;;;18.10;99.90;;;;;;5033980;28;20592;-87
2023/09/26 09:30:28;;;;;;;4.93;3.67;;;18.10;99.90;;;;;;5032751;28;20216;-86
2023/09/26 09:32:55;;;;;;;5.60;4.57;;;18.20;99.90;;;;;;5034137;28;20175;-88
2023/09/26 09:35:21;;;;;;;5.80;4.13;;;18.30;99.90;;;;;;5034281;28;20167;-85
2023/09/26 09:37:49;;;;;;;6.57;4.18;;;18.40;99.90;;;;;;5032953;28;20174;-88
2023/09/26 09:40:20;;;;;;;5.93;4.32;;;18.50;99.90;;;;;;5032991;28;20183;-86
2023/09/26 09:42:51;;;;;;;5.10;4.20;;;18.60;99.90;;;;;;5034088;28;20183;-86
2023/09/26 09:45:18;;;;;;;7.90;4.78;;;18.70;99.90;;;;;;5033864;28;20206;-87
2023/09/26 09:47:48;;;;;;;9.50;4.85;;;18.80;99.90;;;;;;5032935;28;20540;-87
2023/09/26 09:50:15;;;;;;;6.00;4.90;;;18.90;99.90;;;;;;5033004;28;20183;-84
2023/09/26 09:52:48;;;;;;;6.90;5.70;;;19.10;99.90;;;;;;5032668;28;20189;-88
2023/09/26 09:55:25;;;;;;;10.95;5.15;;;19.20;99.90;;;;;;5033172;28;20170;-88
2023/09/26 09:57:51;;;;;;;11.18;5.07;;;19.30;99.90;;;;;;5032928;28;20202;-87
2023/09/26 10:00:24;;;;;;;5.45;4.28;;;19.40;99.90;;;;;;5032363;28;20182;-86
2023/09/26 10:02:56;;;;;;;8.88;4.25;;;19.50;99.90;;;;;;5034163;28;20159;-88
2023/09/26 10:05:22;;;;;;;6.18;3.35;;;19.40;99.90;;;;;;5034111;28;20195;-89
2023/09/26 10:07:51;;;;;;;4.30;3.80;;;19.50;99.90;;;;;;5032632;28;20182;-86
2023/09/26 10:10:18;;;;;;;5.97;3.72;;;19.40;99.90;;;;;;5033843;28;20183;-88
2023/09/26 10:12:44;;;;;;;4.25;3.33;;;19.30;99.90;;;;;;5032549;28;20207;-88
2023/09/26 10:15:11;;;;;;;4.78;2.80;;;19.40;99.90;;;;;;5032404;28;20979;-87
2023/09/26 10:17:41;;;;;;;6.03;3.20;;;19.40;99.90;;;;;;5032668;28;20174;-88
2023/09/26 10:20:10;;;;;;;4.90;3.25;;;19.60;99.90;;;;;;5033760;28;20186;-87
2023/09/26 10:22:41;;;;;;;2.88;2.30;;;19.80;99.90;;;;;;5032684;28;20182;-88
2023/09/26 10:25:07;;;;;;;3.22;2.10;;;19.90;99.90;;;;;;5033752;28;20203;-87
2023/09/26 10:27:43;;;;;;;7.30;3.00;;;20.00;99.90;;;;;;5033864;28;20189;-86
2023/09/26 10:30:12;;;;;;;4.80;2.70;;;20.00;99.90;;;;;;5035403;28;20185;-86
2023/09/26 10:32:43;;;;;;;7.93;3.08;;;20.10;99.90;;;;;;5036314;28;20575;-87
2023/09/26 10:35:16;;;;;;;4.28;2.88;;;20.20;99.90;;;;;;5037675;28;20174;-87
2023/09/26 10:37:48;;;;;;;3.85;2.28;;;20.20;99.90;;;;;;5037630;28;20254;-87
2023/09/26 10:40:16;;;;;;;3.40;2.22;;;20.30;99.90;;;;;;5036272;28;20183;-85
2023/09/26 10:42:43;;;;;;;3.08;1.88;;;20.40;99.90;;;;;;5036158;28;20518;-86
2023/09/26 10:45:10;;;;;;;3.30;2.40;;;20.30;99.90;;;;;;5037141;28;20242;-87
2023/09/26 10:47:38;;;;;;;4.93;2.10;;;20.40;99.90;;;;;;5036155;28;20702;-87
2023/09/26 10:50:09;;;;;;;4.88;1.70;;;20.40;99.90;;;;;;5035855;28;20190;-87
2023/09/26 10:52:35;;;;;;;2.47;1.95;;;20.40;99.90;;;;;;5036358;28;20313;-87
2023/09/26 10:55:06;;;;;;;5.05;2.95;;;20.50;99.90;;;;;;5037436;28;20186;-87
2023/09/26 10:57:32;;;;;;;3.75;2.22;;;20.60;99.90;;;;;;5036270;28;20171;-87
2023/09/26 10:59:57;;;;;;;2.80;2.10;;;20.60;99.90;;;;;;5035835;28;20190;-87
2023/09/26 11:02:23;;;;;;;4.53;2.40;;;20.70;99.90;;;;;;5036705;28;20174;-90
2023/09/26 11:04:50;;;;;;;10.90;2.50;;;20.70;99.90;;;;;;5036040;28;20520;-86
2023/09/26 11:07:16;;;;;;;3.95;2.20;;;20.80;99.90;;;;;;5037029;28;20520;-86
2023/09/26 11:09:44;;;;;;;3.88;2.15;;;20.70;99.90;;;;;;5035901;28;20194;-89
2023/09/26 11:12:12;;;;;;;2.50;1.88;;;20.80;99.90;;;;;;5035607;28;20651;-88
2023/09/26 11:14:38;;;;;;;2.92;1.95;;;20.80;99.90;;;;;;5036894;28;20170;-87
2023/09/26 11:17:06;;;;;;;5.32;1.70;;;20.80;99.90;;;;;;5035605;28;20193;-90
2023/09/26 11:19:34;;;;;;;2.55;1.90;;;21.00;99.90;;;;;;5035534;28;20174;-86
2023/09/26 11:22:00;;;;;;;3.25;1.77;;;21.10;99.90;;;;;;5035615;28;20186;-89
2023/09/26 11:24:31;;;;;;;3.15;1.70;;;21.10;99.90;;;;;;5035687;28;20216;-86
2023/09/26 11:26:59;;;;;;;3.53;1.70;;;21.10;99.90;;;;;;5035555;28;20213;-86
2023/09/26 11:29:25;;;;;;;4.00;1.77;;;21.10;99.90;;;;;;5035147;28;20241;-86
2023/09/26 11:31:52;;;;;;;3.17;2.17;;;21.20;99.90;;;;;;5036491;28;20179;-87
2023/09/26 11:34:23;;;;;;;2.80;2.00;;;21.20;99.90;;;;;;5035366;28;20277;-87
2023/09/26 11:36:49;;;;;;;4.68;1.98;;;21.20;99.90;;;;;;5035348;28;20623;-88
2023/09/26 11:39:22;;;;;;;3.60;1.90;;;21.40;99.90;;;;;;5036706;28;20198;-85
2023/09/26 11:42:17;;;;;;;3.42;2.25;;;21.40;99.90;;;;;;5035795;28;20555;-87
2023/09/26 11:45:04;;;;;;;2.30;1.90;;;21.40;99.90;;;;;;5051818;28;20214;-86
2023/09/26 11:47:30;;;;;;;2.60;1.63;;;21.50;99.90;;;;;;5034520;28;20190;-87
2023/09/26 11:49:56;;;;;;;5.80;1.98;;;21.40;99.90;;;;;;5036486;28;20266;-87
2023/09/26 11:52:22;;;;;;;3.13;1.83;;;21.50;99.90;;;;;;5035083;28;20178;-86
2023/09/26 11:54:50;;;;;;;7.13;2.00;;;21.60;99.90;;;;;;5035201;28;20232;-89
2023/09/26 11:57:18;;;;;;;3.00;1.80;;;21.70;99.90;;;;;;5035234;28;20178;-88
2023/09/26 11:59:44;;;;;;;2.72;1.70;;;21.80;99.90;;;;;;5036329;28;20631;-86
2023/09/26 12:02:10;;;;;;;2.92;1.63;;;21.90;99.90;;;;;;5034924;28;20178;-90
2023/09/26 12:04:39;;;;;;;3.38;1.90;;;21.80;99.90;;;;;;5035189;28;20621;-89
2023/09/26 12:07:05;;;;;;;4.03;1.80;;;21.90;99.90;;;;;;5036038;28;20245;-88
2023/09/26 12:09:33;;;;;;;2.15;1.48;;;22.10;99.90;;;;;;5035046;28;20189;-86
2023/09/26 12:11:59;;;;;;;1.77;1.65;;;22.00;99.90;;;;;;5035841;28;20179;-88
2023/09/26 12:14:24;;;;;;;2.53;1.80;;;22.10;99.90;;;;;;5034223;28;20171;-87
2023/09/26 12:16:51;;;;;;;4.70;2.00;;;22.10;99.90;;;;;;5033913;28;20182;-87
2023/09/26 12:19:21;;;;;;;3.90;1.90;;;22.10;99.90;;;;;;5035595;28;20201;-86
2023/09/26 12:21:48;;;;;;;5.72;1.67;;;22.20;99.90;;;;;;5034291;28;20209;-86
2023/09/26 12:24:15;;;;;;;2.10;1.60;;;22.30;99.90;;;;;;5034352;28;20230;-87
2023/09/26 12:26:41;;;;;;;1.95;1.55;;;22.30;99.90;;;;;;5034150;28;20252;-88
2023/09/26 12:29:09;;;;;;;3.17;1.38;;;22.40;99.90;;;;;;5033879;28;20637;-87
2023/09/26 12:31:35;;;;;;;2.95;1.60;;;22.40;99.90;;;;;;5034934;28;20625;-88
2023/09/26 12:34:02;;;;;;;2.20;1.95;;;22.40;99.90;;;;;;5034051;28;20186;-86
2023/09/26 12:36:29;;;;;;;5.63;1.75;;;22.40;99.90;;;;;;5034117;28;20170;-86
2023/09/26 12:38:55;;;;;;;3.78;1.70;;;22.40;99.90;;;;;;5034085;28;20189;-86
2023/09/26 12:41:20;;;;;;;2.05;1.55;;;22.50;99.90;;;;;;5035092;28;20178;-86
2023/09/26 12:43:47;;;;;;;3.90;1.70;;;22.50;99.90;;;;;;5034937;28;20189;-86
2023/09/26 12:46:13;;;;;;;3.38;1.67;;;22.60;99.90;;;;;;5034916;28;20166;-87
2023/09/26 12:48:38;;;;;;;2.80;1.70;;;22.60;99.90;;;;;;5033689;28;20293;-87
2023/09/26 12:51:05;;;;;;;5.18;1.70;;;22.80;99.90;;;;;;5033796;28;20208;-87